sensor_id;sensor_type;location;lat;lon;timestamp;temperature;humidity
758;DHT22;363;48.764;9.172;2023-03-14T00:01:47;11.30;99.90
758;DHT22;363;48.764;9.172;2023-03-14T00:04:14;11.10;99.90
758;DHT22;363;48.764;9.172;2023-03-14T00:06:40;11.30;99.90
758;DHT22;363;48.764;9.172;2023-03-14T00:09:05;11.20;99.90
758;DHT22;363;48.764;9.172;2023-03-14T00:11:31;11.30;99.90
758;DHT22;363;48.764;9.172;2023-03-14T00:13:57;11.20;99.90
758;DHT22;363;48.764;9.172;2023-03-14T00:16:22;11.50;99.90
758;DHT22;363;48.764;9.172;2023-03-14T00:18:48;11.20;99.90
758;DHT22;363;48.764;9.172;2023-03-14T00:21:14;11.60;99.90
758;DHT22;363;48.764;9.172;2023-03-14T00:23:41;11.20;99.90
758;DHT22;363;48.764;9.172;2023-03-14T00:26:15;11.20;99.90
758;DHT22;363;48.764;9.172;2023-03-14T00:28:42;11.40;99.90
758;DHT22;363;48.764;9.172;2023-03-14T00:31:10;11.30;99.90
758;DHT22;363;48.764;9.172;2023-03-14T00:33:37;11.50;99.90
758;DHT22;363;48.764;9.172;2023-03-14T00:36:08;11.30;99.90
758;DHT22;363;48.764;9.172;2023-03-14T00:38:35;11.40;99.90
758;DHT22;363;48.764;9.172;2023-03-14T00:41:09;11.50;99.90
758;DHT22;363;48.764;9.172;2023-03-14T00:43:35;11.50;99.90
758;DHT22;363;48.764;9.172;2023-03-14T00:46:01;11.20;99.90
758;DHT22;363;48.764;9.172;2023-03-14T00:48:27;11.50;99.90
758;DHT22;363;48.764;9.172;2023-03-14T00:50:52;11.30;99.90
758;DHT22;363;48.764;9.172;2023-03-14T00:53:18;11.50;99.90
758;DHT22;363;48.764;9.172;2023-03-14T00:55:43;11.30;99.90
758;DHT22;363;48.764;9.172;2023-03-14T00:58:11;11.40;99.90
758;DHT22;363;48.764;9.172;2023-03-14T01:00:37;11.50;99.90
758;DHT22;363;48.764;9.172;2023-03-14T01:03:03;11.50;99.90
758;DHT22;363;48.764;9.172;2023-03-14T01:05:29;11.40;99.90
758;DHT22;363;48.764;9.172;2023-03-14T01:07:55;11.30;99.90
758;DHT22;363;48.764;9.172;2023-03-14T01:10:21;11.30;99.90
758;DHT22;363;48.764;9.172;2023-03-14T01:12:47;11.40;99.90
758;DHT22;363;48.764;9.172;2023-03-14T01:15:12;11.40;99.90
758;DHT22;363;48.764;9.172;2023-03-14T01:17:38;11.40;99.90
758;DHT22;363;48.764;9.172;2023-03-14T01:20:06;11.50;99.90
758;DHT22;363;48.764;9.172;2023-03-14T01:22:35;11.40;99.90
758;DHT22;363;48.764;9.172;2023-03-14T01:25:00;11.50;99.90
758;DHT22;363;48.764;9.172;2023-03-14T01:27:26;11.60;99.90
758;DHT22;363;48.764;9.172;2023-03-14T01:29:52;11.60;99.90
758;DHT22;363;48.764;9.172;2023-03-14T01:32:17;11.40;99.90
758;DHT22;363;48.764;9.172;2023-03-14T01:34:43;11.80;99.90
758;DHT22;363;48.764;9.172;2023-03-14T01:37:08;11.10;99.90
758;DHT22;363;48.764;9.172;2023-03-14T01:39:34;11.50;99.90
758;DHT22;363;48.764;9.172;2023-03-14T01:42:00;11.60;99.90
758;DHT22;363;48.764;9.172;2023-03-14T01:44:26;11.70;99.90
758;DHT22;363;48.764;9.172;2023-03-14T01:46:52;11.50;99.90
758;DHT22;363;48.764;9.172;2023-03-14T01:49:27;11.60;99.90
758;DHT22;363;48.764;9.172;2023-03-14T01:55:13;11.60;99.90
758;DHT22;363;48.764;9.172;2023-03-14T01:57:47;11.40;99.90
758;DHT22;363;48.764;9.172;2023-03-14T02:00:16;11.30;99.90
758;DHT22;363;48.764;9.172;2023-03-14T02:02:47;11.50;99.90
758;DHT22;363;48.764;9.172;2023-03-14T02:05:17;11.40;99.90
758;DHT22;363;48.764;9.172;2023-03-14T02:07:54;11.60;99.90
758;DHT22;363;48.764;9.172;2023-03-14T02:10:23;11.40;99.90
758;DHT22;363;48.764;9.172;2023-03-14T02:12:52;11.50;99.90
758;DHT22;363;48.764;9.172;2023-03-14T02:15:18;11.30;99.90
758;DHT22;363;48.764;9.172;2023-03-14T02:17:45;11.60;99.90
758;DHT22;363;48.764;9.172;2023-03-14T02:22:49;11.20;99.90
758;DHT22;363;48.764;9.172;2023-03-14T02:28:00;11.50;99.90
758;DHT22;363;48.764;9.172;2023-03-14T02:30:28;11.30;99.90
758;DHT22;363;48.764;9.172;2023-03-14T02:33:03;11.30;99.90
758;DHT22;363;48.764;9.172;2023-03-14T02:36:14;11.10;99.90
758;DHT22;363;48.764;9.172;2023-03-14T02:40:50;11.10;99.90
758;DHT22;363;48.764;9.172;2023-03-14T02:43:16;11.20;99.90
758;DHT22;363;48.764;9.172;2023-03-14T02:45:44;11.00;99.90
758;DHT22;363;48.764;9.172;2023-03-14T02:48:25;11.10;99.90
758;DHT22;363;48.764;9.172;2023-03-14T02:50:55;11.10;99.90
758;DHT22;363;48.764;9.172;2023-03-14T02:53:28;11.00;99.90
758;DHT22;363;48.764;9.172;2023-03-14T02:55:54;11.10;99.90
758;DHT22;363;48.764;9.172;2023-03-14T02:58:20;11.10;99.90
758;DHT22;363;48.764;9.172;2023-03-14T03:00:46;11.10;99.90
758;DHT22;363;48.764;9.172;2023-03-14T03:03:12;11.10;99.90
758;DHT22;363;48.764;9.172;2023-03-14T03:05:38;11.10;99.90
758;DHT22;363;48.764;9.172;2023-03-14T03:08:04;11.20;99.90
758;DHT22;363;48.764;9.172;2023-03-14T03:10:31;10.90;99.90
758;DHT22;363;48.764;9.172;2023-03-14T03:12:56;11.20;99.90
758;DHT22;363;48.764;9.172;2023-03-14T03:15:22;11.20;99.90
758;DHT22;363;48.764;9.172;2023-03-14T03:17:48;11.30;99.90
758;DHT22;363;48.764;9.172;2023-03-14T03:20:13;11.00;99.90
758;DHT22;363;48.764;9.172;2023-03-14T03:22:39;10.90;99.90
758;DHT22;363;48.764;9.172;2023-03-14T03:25:06;11.10;99.90
758;DHT22;363;48.764;9.172;2023-03-14T03:27:33;11.00;99.90
758;DHT22;363;48.764;9.172;2023-03-14T03:29:59;10.90;99.90
758;DHT22;363;48.764;9.172;2023-03-14T03:32:25;11.10;99.90
758;DHT22;363;48.764;9.172;2023-03-14T03:34:52;11.00;99.90
758;DHT22;363;48.764;9.172;2023-03-14T03:37:17;11.10;99.90
758;DHT22;363;48.764;9.172;2023-03-14T03:39:43;11.00;99.90
758;DHT22;363;48.764;9.172;2023-03-14T03:42:09;10.90;99.90
758;DHT22;363;48.764;9.172;2023-03-14T03:44:35;11.00;99.90
758;DHT22;363;48.764;9.172;2023-03-14T03:47:01;11.10;99.90
758;DHT22;363;48.764;9.172;2023-03-14T03:49:33;10.90;99.90
758;DHT22;363;48.764;9.172;2023-03-14T03:51:59;11.00;99.90
758;DHT22;363;48.764;9.172;2023-03-14T03:54:25;11.00;99.90
758;DHT22;363;48.764;9.172;2023-03-14T03:56:51;10.90;99.90
758;DHT22;363;48.764;9.172;2023-03-14T03:59:17;10.70;99.90
758;DHT22;363;48.764;9.172;2023-03-14T04:01:43;10.80;99.90
758;DHT22;363;48.764;9.172;2023-03-14T04:04:09;11.00;99.90
758;DHT22;363;48.764;9.172;2023-03-14T04:06:35;10.80;99.90
758;DHT22;363;48.764;9.172;2023-03-14T04:09:00;10.90;99.90
758;DHT22;363;48.764;9.172;2023-03-14T04:11:26;10.80;99.90
758;DHT22;363;48.764;9.172;2023-03-14T04:13:52;10.50;99.90
758;DHT22;363;48.764;9.172;2023-03-14T04:16:20;10.80;99.90
758;DHT22;363;48.764;9.172;2023-03-14T04:18:46;10.90;99.90
758;DHT22;363;48.764;9.172;2023-03-14T04:21:12;11.00;99.90
758;DHT22;363;48.764;9.172;2023-03-14T04:23:38;10.80;99.90
758;DHT22;363;48.764;9.172;2023-03-14T04:26:04;11.00;99.90
758;DHT22;363;48.764;9.172;2023-03-14T04:28:29;10.70;99.90
758;DHT22;363;48.764;9.172;2023-03-14T04:30:55;10.60;99.90
758;DHT22;363;48.764;9.172;2023-03-14T04:33:21;10.80;99.90
758;DHT22;363;48.764;9.172;2023-03-14T04:35:47;10.80;99.90
758;DHT22;363;48.764;9.172;2023-03-14T04:38:13;10.60;99.90
758;DHT22;363;48.764;9.172;2023-03-14T04:40:42;10.70;99.90
758;DHT22;363;48.764;9.172;2023-03-14T04:43:10;10.80;99.90
758;DHT22;363;48.764;9.172;2023-03-14T04:45:36;10.50;99.90
758;DHT22;363;48.764;9.172;2023-03-14T04:48:02;10.70;99.90
758;DHT22;363;48.764;9.172;2023-03-14T04:50:27;10.80;99.90
758;DHT22;363;48.764;9.172;2023-03-14T04:52:53;10.70;99.90
758;DHT22;363;48.764;9.172;2023-03-14T04:55:19;10.60;99.90
758;DHT22;363;48.764;9.172;2023-03-14T04:57:45;10.60;99.90
758;DHT22;363;48.764;9.172;2023-03-14T05:00:11;11.10;99.90
758;DHT22;363;48.764;9.172;2023-03-14T05:02:37;10.50;99.90
758;DHT22;363;48.764;9.172;2023-03-14T05:05:02;10.60;99.90
758;DHT22;363;48.764;9.172;2023-03-14T05:07:28;10.60;99.90
758;DHT22;363;48.764;9.172;2023-03-14T05:09:54;10.70;99.90
758;DHT22;363;48.764;9.172;2023-03-14T05:12:20;10.50;99.90
758;DHT22;363;48.764;9.172;2023-03-14T05:14:46;10.70;99.90
758;DHT22;363;48.764;9.172;2023-03-14T05:17:12;10.40;99.90
758;DHT22;363;48.764;9.172;2023-03-14T05:19:40;10.50;99.90
758;DHT22;363;48.764;9.172;2023-03-14T05:22:06;10.80;99.90
758;DHT22;363;48.764;9.172;2023-03-14T05:24:31;10.70;99.90
758;DHT22;363;48.764;9.172;2023-03-14T05:26:57;10.60;99.90
758;DHT22;363;48.764;9.172;2023-03-14T05:29:23;10.50;99.90
758;DHT22;363;48.764;9.172;2023-03-14T05:31:48;10.40;99.90
758;DHT22;363;48.764;9.172;2023-03-14T05:34:14;10.50;99.90
758;DHT22;363;48.764;9.172;2023-03-14T05:36:39;10.60;99.90
758;DHT22;363;48.764;9.172;2023-03-14T05:39:05;10.60;99.90
758;DHT22;363;48.764;9.172;2023-03-14T05:41:31;10.30;99.90
758;DHT22;363;48.764;9.172;2023-03-14T05:43:56;10.80;99.90
758;DHT22;363;48.764;9.172;2023-03-14T05:46:22;10.60;99.90
758;DHT22;363;48.764;9.172;2023-03-14T05:48:47;10.70;99.90
758;DHT22;363;48.764;9.172;2023-03-14T05:51:13;10.50;99.90
758;DHT22;363;48.764;9.172;2023-03-14T05:53:39;10.50;99.90
758;DHT22;363;48.764;9.172;2023-03-14T05:56:05;10.30;99.90
758;DHT22;363;48.764;9.172;2023-03-14T05:58:30;10.60;99.90
758;DHT22;363;48.764;9.172;2023-03-14T06:00:56;10.50;99.90
758;DHT22;363;48.764;9.172;2023-03-14T06:03:22;10.60;99.90
758;DHT22;363;48.764;9.172;2023-03-14T06:05:50;10.50;99.90
758;DHT22;363;48.764;9.172;2023-03-14T06:08:16;10.80;99.90
758;DHT22;363;48.764;9.172;2023-03-14T06:10:42;10.90;99.90
758;DHT22;363;48.764;9.172;2023-03-14T06:13:07;10.70;99.90
758;DHT22;363;48.764;9.172;2023-03-14T06:15:33;10.80;99.90
758;DHT22;363;48.764;9.172;2023-03-14T06:17:58;10.80;99.90
758;DHT22;363;48.764;9.172;2023-03-14T06:20:24;10.70;99.90
758;DHT22;363;48.764;9.172;2023-03-14T06:22:50;10.80;99.90
758;DHT22;363;48.764;9.172;2023-03-14T06:25:15;11.30;99.90
758;DHT22;363;48.764;9.172;2023-03-14T06:27:41;10.80;99.90
758;DHT22;363;48.764;9.172;2023-03-14T06:30:08;11.00;99.90
758;DHT22;363;48.764;9.172;2023-03-14T06:32:33;10.80;99.90
758;DHT22;363;48.764;9.172;2023-03-14T06:34:59;10.90;99.90
758;DHT22;363;48.764;9.172;2023-03-14T06:37:27;11.10;99.90
758;DHT22;363;48.764;9.172;2023-03-14T06:39:53;11.20;99.90
758;DHT22;363;48.764;9.172;2023-03-14T06:42:19;11.00;99.90
758;DHT22;363;48.764;9.172;2023-03-14T06:44:44;11.30;99.90
758;DHT22;363;48.764;9.172;2023-03-14T06:47:10;11.10;99.90
758;DHT22;363;48.764;9.172;2023-03-14T06:49:36;11.20;99.90
758;DHT22;363;48.764;9.172;2023-03-14T06:52:01;11.20;99.90
758;DHT22;363;48.764;9.172;2023-03-14T06:54:27;11.20;99.90
758;DHT22;363;48.764;9.172;2023-03-14T06:56:52;11.20;99.90
758;DHT22;363;48.764;9.172;2023-03-14T06:59:18;11.30;99.90
758;DHT22;363;48.764;9.172;2023-03-14T07:01:44;11.80;99.90
758;DHT22;363;48.764;9.172;2023-03-14T07:04:10;11.70;99.90
758;DHT22;363;48.764;9.172;2023-03-14T07:06:36;11.60;99.90
758;DHT22;363;48.764;9.172;2023-03-14T07:09:02;11.70;99.90
758;DHT22;363;48.764;9.172;2023-03-14T07:11:28;11.90;99.90
758;DHT22;363;48.764;9.172;2023-03-14T07:13:54;11.90;99.90
758;DHT22;363;48.764;9.172;2023-03-14T07:16:19;12.00;99.90
758;DHT22;363;48.764;9.172;2023-03-14T07:18:45;12.10;99.90
758;DHT22;363;48.764;9.172;2023-03-14T07:21:11;12.50;99.90
758;DHT22;363;48.764;9.172;2023-03-14T07:23:37;12.80;99.90
758;DHT22;363;48.764;9.172;2023-03-14T07:26:03;13.20;99.90
758;DHT22;363;48.764;9.172;2023-03-14T07:28:29;14.10;99.10
758;DHT22;363;48.764;9.172;2023-03-14T07:30:55;15.50;96.70
758;DHT22;363;48.764;9.172;2023-03-14T07:33:21;16.00;94.10
758;DHT22;363;48.764;9.172;2023-03-14T07:35:48;16.90;93.10
758;DHT22;363;48.764;9.172;2023-03-14T07:38:14;17.80;91.30
758;DHT22;363;48.764;9.172;2023-03-14T07:40:40;18.70;88.60
758;DHT22;363;48.764;9.172;2023-03-14T07:43:05;19.30;85.30
758;DHT22;363;48.764;9.172;2023-03-14T07:45:31;20.30;84.10
758;DHT22;363;48.764;9.172;2023-03-14T07:47:57;20.40;81.50
758;DHT22;363;48.764;9.172;2023-03-14T07:50:26;20.00;78.50
758;DHT22;363;48.764;9.172;2023-03-14T07:52:52;19.70;79.20
758;DHT22;363;48.764;9.172;2023-03-14T07:55:18;19.40;80.10
758;DHT22;363;48.764;9.172;2023-03-14T07:57:43;19.10;81.00
758;DHT22;363;48.764;9.172;2023-03-14T08:00:09;19.10;80.20
758;DHT22;363;48.764;9.172;2023-03-14T08:02:36;18.60;81.20
758;DHT22;363;48.764;9.172;2023-03-14T08:05:02;17.80;83.60
758;DHT22;363;48.764;9.172;2023-03-14T08:07:28;17.40;86.00
758;DHT22;363;48.764;9.172;2023-03-14T08:09:54;17.30;87.10
758;DHT22;363;48.764;9.172;2023-03-14T08:12:19;17.30;87.50
758;DHT22;363;48.764;9.172;2023-03-14T08:14:45;17.10;87.70
758;DHT22;363;48.764;9.172;2023-03-14T08:17:11;17.00;87.50
758;DHT22;363;48.764;9.172;2023-03-14T08:19:36;16.50;87.40
758;DHT22;363;48.764;9.172;2023-03-14T08:22:02;16.10;90.50
758;DHT22;363;48.764;9.172;2023-03-14T08:24:28;16.30;90.50
758;DHT22;363;48.764;9.172;2023-03-14T08:26:54;16.30;89.50
758;DHT22;363;48.764;9.172;2023-03-14T08:29:19;17.00;89.60
758;DHT22;363;48.764;9.172;2023-03-14T08:31:45;17.00;87.70
758;DHT22;363;48.764;9.172;2023-03-14T08:34:11;16.90;87.80
758;DHT22;363;48.764;9.172;2023-03-14T08:36:36;17.40;86.90
758;DHT22;363;48.764;9.172;2023-03-14T08:39:02;17.80;84.70
758;DHT22;363;48.764;9.172;2023-03-14T08:41:29;18.00;84.30
758;DHT22;363;48.764;9.172;2023-03-14T08:43:54;17.60;83.30
758;DHT22;363;48.764;9.172;2023-03-14T08:46:20;17.50;83.90
758;DHT22;363;48.764;9.172;2023-03-14T08:48:45;17.30;83.10
758;DHT22;363;48.764;9.172;2023-03-14T08:51:13;17.20;84.20
758;DHT22;363;48.764;9.172;2023-03-14T08:53:39;17.10;85.30
758;DHT22;363;48.764;9.172;2023-03-14T08:56:06;16.90;85.20
758;DHT22;363;48.764;9.172;2023-03-14T08:58:33;17.00;85.10
758;DHT22;363;48.764;9.172;2023-03-14T09:00:59;17.30;85.30
758;DHT22;363;48.764;9.172;2023-03-14T09:03:25;17.10;84.90
758;DHT22;363;48.764;9.172;2023-03-14T09:05:51;17.70;84.40
758;DHT22;363;48.764;9.172;2023-03-14T09:08:17;17.40;83.20
758;DHT22;363;48.764;9.172;2023-03-14T09:10:43;17.30;85.90
758;DHT22;363;48.764;9.172;2023-03-14T09:13:08;16.90;85.80
758;DHT22;363;48.764;9.172;2023-03-14T09:15:34;17.00;88.70
758;DHT22;363;48.764;9.172;2023-03-14T09:18:00;16.30;90.00
758;DHT22;363;48.764;9.172;2023-03-14T09:20:26;15.90;90.30
758;DHT22;363;48.764;9.172;2023-03-14T09:22:52;16.40;91.00
758;DHT22;363;48.764;9.172;2023-03-14T09:25:17;16.20;91.30
758;DHT22;363;48.764;9.172;2023-03-14T09:27:44;16.70;90.90
758;DHT22;363;48.764;9.172;2023-03-14T09:30:14;16.80;90.40
758;DHT22;363;48.764;9.172;2023-03-14T09:32:39;17.20;89.20
758;DHT22;363;48.764;9.172;2023-03-14T09:35:05;17.30;88.70
758;DHT22;363;48.764;9.172;2023-03-14T09:37:31;17.40;89.20
758;DHT22;363;48.764;9.172;2023-03-14T09:39:56;17.50;89.70
758;DHT22;363;48.764;9.172;2023-03-14T09:42:25;17.40;89.90
758;DHT22;363;48.764;9.172;2023-03-14T09:47:17;16.30;90.30
758;DHT22;363;48.764;9.172;2023-03-14T09:49:45;15.90;90.70
758;DHT22;363;48.764;9.172;2023-03-14T09:52:24;15.70;90.80
758;DHT22;363;48.764;9.172;2023-03-14T09:54:54;15.50;90.90
758;DHT22;363;48.764;9.172;2023-03-14T09:57:24;15.60;91.50
758;DHT22;363;48.764;9.172;2023-03-14T09:59:53;15.10;91.50
758;DHT22;363;48.764;9.172;2023-03-14T10:02:25;15.30;91.50
758;DHT22;363;48.764;9.172;2023-03-14T10:04:54;15.40;91.30
758;DHT22;363;48.764;9.172;2023-03-14T10:07:31;15.20;91.60
758;DHT22;363;48.764;9.172;2023-03-14T10:09:58;15.50;91.50
758;DHT22;363;48.764;9.172;2023-03-14T10:12:35;16.10;91.30
758;DHT22;363;48.764;9.172;2023-03-14T10:15:07;17.20;90.10
758;DHT22;363;48.764;9.172;2023-03-14T10:17:47;18.70;84.60
758;DHT22;363;48.764;9.172;2023-03-14T10:23:46;19.50;78.90
758;DHT22;363;48.764;9.172;2023-03-14T10:26:17;19.80;78.80
758;DHT22;363;48.764;9.172;2023-03-14T10:28:50;20.20;75.60
758;DHT22;363;48.764;9.172;2023-03-14T10:31:17;19.00;77.20
758;DHT22;363;48.764;9.172;2023-03-14T10:34:01;18.60;78.50
758;DHT22;363;48.764;9.172;2023-03-14T10:36:29;18.00;80.10
758;DHT22;363;48.764;9.172;2023-03-14T10:39:24;17.30;81.90
758;DHT22;363;48.764;9.172;2023-03-14T10:44:43;16.20;86.80
758;DHT22;363;48.764;9.172;2023-03-14T10:47:18;16.10;87.80
758;DHT22;363;48.764;9.172;2023-03-14T10:49:44;16.30;88.90
758;DHT22;363;48.764;9.172;2023-03-14T10:52:23;16.30;88.10
758;DHT22;363;48.764;9.172;2023-03-14T10:55:01;15.90;89.10
758;DHT22;363;48.764;9.172;2023-03-14T10:57:27;15.80;89.70
758;DHT22;363;48.764;9.172;2023-03-14T10:59:55;15.80;90.20
758;DHT22;363;48.764;9.172;2023-03-14T11:02:38;15.70;90.80
758;DHT22;363;48.764;9.172;2023-03-14T11:08:07;15.00;92.20
758;DHT22;363;48.764;9.172;2023-03-14T11:10:36;15.00;93.20
758;DHT22;363;48.764;9.172;2023-03-14T11:13:25;14.90;94.20
758;DHT22;363;48.764;9.172;2023-03-14T11:19:03;14.80;94.80
758;DHT22;363;48.764;9.172;2023-03-14T11:21:52;14.40;94.90
758;DHT22;363;48.764;9.172;2023-03-14T11:27:21;14.40;96.40
758;DHT22;363;48.764;9.172;2023-03-14T11:30:13;13.70;97.60
758;DHT22;363;48.764;9.172;2023-03-14T11:32:44;14.30;98.20
758;DHT22;363;48.764;9.172;2023-03-14T11:35:19;13.70;98.60
758;DHT22;363;48.764;9.172;2023-03-14T11:40:49;13.30;99.10
758;DHT22;363;48.764;9.172;2023-03-14T11:43:23;13.60;99.20
758;DHT22;363;48.764;9.172;2023-03-14T11:45:56;13.70;98.40
758;DHT22;363;48.764;9.172;2023-03-14T11:48:40;13.60;99.20
758;DHT22;363;48.764;9.172;2023-03-14T11:51:23;13.40;99.50
758;DHT22;363;48.764;9.172;2023-03-14T11:56:33;13.40;99.90
758;DHT22;363;48.764;9.172;2023-03-14T11:59:21;12.90;99.90
758;DHT22;363;48.764;9.172;2023-03-14T12:02:33;13.60;99.90
758;DHT22;363;48.764;9.172;2023-03-14T12:07:29;13.30;99.90
758;DHT22;363;48.764;9.172;2023-03-14T12:09:58;13.70;99.90
758;DHT22;363;48.764;9.172;2023-03-14T12:12:27;13.60;99.90
758;DHT22;363;48.764;9.172;2023-03-14T12:15:04;13.80;99.90
758;DHT22;363;48.764;9.172;2023-03-14T12:17:35;13.70;99.90
758;DHT22;363;48.764;9.172;2023-03-14T12:20:20;14.00;99.90
758;DHT22;363;48.764;9.172;2023-03-14T12:22:56;13.70;99.90
758;DHT22;363;48.764;9.172;2023-03-14T12:25:29;13.40;99.90
758;DHT22;363;48.764;9.172;2023-03-14T12:30:29;14.20;99.90
758;DHT22;363;48.764;9.172;2023-03-14T12:35:47;14.60;96.20
758;DHT22;363;48.764;9.172;2023-03-14T12:39:27;14.80;96.00
758;DHT22;363;48.764;9.172;2023-03-14T12:41:23;14.60;94.90
758;DHT22;363;48.764;9.172;2023-03-14T12:43:50;14.90;95.80
758;DHT22;363;48.764;9.172;2023-03-14T12:46:25;14.80;94.50
758;DHT22;363;48.764;9.172;2023-03-14T12:51:44;14.20;91.70
758;DHT22;363;48.764;9.172;2023-03-14T13:01:55;13.60;90.10
758;DHT22;363;48.764;9.172;2023-03-14T13:04:27;13.40;86.40
758;DHT22;363;48.764;9.172;2023-03-14T13:06:56;13.00;86.40
758;DHT22;363;48.764;9.172;2023-03-14T13:09:51;12.90;86.00
758;DHT22;363;48.764;9.172;2023-03-14T13:12:23;12.40;86.20
758;DHT22;363;48.764;9.172;2023-03-14T13:14:53;12.80;86.00
758;DHT22;363;48.764;9.172;2023-03-14T13:17:46;12.60;83.40
758;DHT22;363;48.764;9.172;2023-03-14T13:20:16;12.40;83.90
758;DHT22;363;48.764;9.172;2023-03-14T13:22:48;12.50;81.90
758;DHT22;363;48.764;9.172;2023-03-14T13:25:14;12.20;80.90
758;DHT22;363;48.764;9.172;2023-03-14T13:27:42;12.40;81.00
758;DHT22;363;48.764;9.172;2023-03-14T13:30:41;12.50;81.80
758;DHT22;363;48.764;9.172;2023-03-14T13:33:11;12.80;80.30
758;DHT22;363;48.764;9.172;2023-03-14T13:35:49;12.80;80.10
758;DHT22;363;48.764;9.172;2023-03-14T13:38:27;12.80;80.70
758;DHT22;363;48.764;9.172;2023-03-14T13:40:58;12.20;78.10
758;DHT22;363;48.764;9.172;2023-03-14T13:43:30;12.50;78.20
758;DHT22;363;48.764;9.172;2023-03-14T13:46:06;12.60;79.30
758;DHT22;363;48.764;9.172;2023-03-14T13:48:45;12.60;78.10
758;DHT22;363;48.764;9.172;2023-03-14T13:51:14;12.70;78.80
758;DHT22;363;48.764;9.172;2023-03-14T13:54:00;12.90;80.40
758;DHT22;363;48.764;9.172;2023-03-14T13:56:28;13.00;78.00
758;DHT22;363;48.764;9.172;2023-03-14T13:58:54;12.40;76.20
758;DHT22;363;48.764;9.172;2023-03-14T14:01:37;12.70;77.00
758;DHT22;363;48.764;9.172;2023-03-14T14:04:09;12.10;74.60
758;DHT22;363;48.764;9.172;2023-03-14T14:06:45;12.20;73.50
758;DHT22;363;48.764;9.172;2023-03-14T14:09:16;12.10;72.30
758;DHT22;363;48.764;9.172;2023-03-14T14:11:59;12.00;71.70
758;DHT22;363;48.764;9.172;2023-03-14T14:14:35;12.10;71.90
758;DHT22;363;48.764;9.172;2023-03-14T14:17:05;11.90;70.90
758;DHT22;363;48.764;9.172;2023-03-14T14:19:33;11.60;70.80
758;DHT22;363;48.764;9.172;2023-03-14T14:21:59;11.90;72.40
758;DHT22;363;48.764;9.172;2023-03-14T14:24:32;11.40;71.20
758;DHT22;363;48.764;9.172;2023-03-14T14:27:08;11.50;71.30
758;DHT22;363;48.764;9.172;2023-03-14T14:29:34;11.50;70.90
758;DHT22;363;48.764;9.172;2023-03-14T14:32:12;11.50;71.00
758;DHT22;363;48.764;9.172;2023-03-14T14:34:57;11.50;71.80
758;DHT22;363;48.764;9.172;2023-03-14T14:37:26;11.80;71.70
758;DHT22;363;48.764;9.172;2023-03-14T14:39:54;11.70;72.20
758;DHT22;363;48.764;9.172;2023-03-14T14:42:24;11.40;70.90
758;DHT22;363;48.764;9.172;2023-03-14T14:44:50;11.30;71.10
758;DHT22;363;48.764;9.172;2023-03-14T14:47:23;11.60;72.20
758;DHT22;363;48.764;9.172;2023-03-14T14:49:50;11.60;72.20
758;DHT22;363;48.764;9.172;2023-03-14T14:52:22;11.50;72.70
758;DHT22;363;48.764;9.172;2023-03-14T14:54:58;11.10;71.70
758;DHT22;363;48.764;9.172;2023-03-14T14:57:33;11.40;72.80
758;DHT22;363;48.764;9.172;2023-03-14T15:00:07;11.10;72.60
758;DHT22;363;48.764;9.172;2023-03-14T15:02:59;11.20;73.20
758;DHT22;363;48.764;9.172;2023-03-14T15:05:27;11.20;73.40
758;DHT22;363;48.764;9.172;2023-03-14T15:07:55;11.30;74.00
758;DHT22;363;48.764;9.172;2023-03-14T15:10:23;11.20;73.10
758;DHT22;363;48.764;9.172;2023-03-14T15:12:49;11.30;74.40
758;DHT22;363;48.764;9.172;2023-03-14T15:15:15;11.20;74.00
758;DHT22;363;48.764;9.172;2023-03-14T15:17:42;11.20;73.40
758;DHT22;363;48.764;9.172;2023-03-14T15:20:13;11.20;74.30
758;DHT22;363;48.764;9.172;2023-03-14T15:22:40;11.30;73.80
758;DHT22;363;48.764;9.172;2023-03-14T15:25:06;11.40;74.00
758;DHT22;363;48.764;9.172;2023-03-14T15:27:33;11.70;73.40
758;DHT22;363;48.764;9.172;2023-03-14T15:29:59;11.60;72.60
758;DHT22;363;48.764;9.172;2023-03-14T15:32:28;11.60;73.20
758;DHT22;363;48.764;9.172;2023-03-14T15:34:57;11.60;73.60
758;DHT22;363;48.764;9.172;2023-03-14T15:37:22;11.20;73.10
758;DHT22;363;48.764;9.172;2023-03-14T15:39:48;11.10;72.60
758;DHT22;363;48.764;9.172;2023-03-14T15:42:14;11.10;73.10
758;DHT22;363;48.764;9.172;2023-03-14T15:44:40;11.10;74.80
758;DHT22;363;48.764;9.172;2023-03-14T15:47:06;11.20;74.30
758;DHT22;363;48.764;9.172;2023-03-14T15:49:32;11.10;75.70
758;DHT22;363;48.764;9.172;2023-03-14T15:51:58;10.90;75.00
758;DHT22;363;48.764;9.172;2023-03-14T15:54:24;10.70;75.50
758;DHT22;363;48.764;9.172;2023-03-14T15:56:57;10.80;76.40
758;DHT22;363;48.764;9.172;2023-03-14T15:59:23;10.90;77.00
758;DHT22;363;48.764;9.172;2023-03-14T16:01:49;10.80;76.40
758;DHT22;363;48.764;9.172;2023-03-14T16:04:14;11.00;76.20
758;DHT22;363;48.764;9.172;2023-03-14T16:06:40;11.10;76.70
758;DHT22;363;48.764;9.172;2023-03-14T16:09:06;11.00;77.20
758;DHT22;363;48.764;9.172;2023-03-14T16:11:31;11.00;77.00
758;DHT22;363;48.764;9.172;2023-03-14T16:13:57;10.90;76.80
758;DHT22;363;48.764;9.172;2023-03-14T16:16:23;11.10;76.90
758;DHT22;363;48.764;9.172;2023-03-14T16:18:48;11.20;77.90
758;DHT22;363;48.764;9.172;2023-03-14T16:21:16;11.00;77.20
758;DHT22;363;48.764;9.172;2023-03-14T16:23:43;10.50;77.00
758;DHT22;363;48.764;9.172;2023-03-14T16:26:11;11.20;77.90
758;DHT22;363;48.764;9.172;2023-03-14T16:28:37;10.90;77.80
758;DHT22;363;48.764;9.172;2023-03-14T16:31:08;10.80;78.20
758;DHT22;363;48.764;9.172;2023-03-14T16:33:35;11.10;79.40
758;DHT22;363;48.764;9.172;2023-03-14T16:36:02;10.90;79.40
758;DHT22;363;48.764;9.172;2023-03-14T16:38:33;10.80;80.10
758;DHT22;363;48.764;9.172;2023-03-14T16:41:08;10.40;80.00
758;DHT22;363;48.764;9.172;2023-03-14T16:43:34;10.70;81.00
758;DHT22;363;48.764;9.172;2023-03-14T16:46:04;10.40;81.10
758;DHT22;363;48.764;9.172;2023-03-14T16:48:30;10.60;81.90
758;DHT22;363;48.764;9.172;2023-03-14T16:50:56;10.60;81.70
758;DHT22;363;48.764;9.172;2023-03-14T16:53:22;10.40;82.20
758;DHT22;363;48.764;9.172;2023-03-14T16:55:49;10.30;81.40
758;DHT22;363;48.764;9.172;2023-03-14T16:58:15;10.60;82.50
758;DHT22;363;48.764;9.172;2023-03-14T17:00:44;10.50;82.10
758;DHT22;363;48.764;9.172;2023-03-14T17:03:10;10.40;81.80
758;DHT22;363;48.764;9.172;2023-03-14T17:05:36;10.20;82.20
758;DHT22;363;48.764;9.172;2023-03-14T17:08:02;10.30;82.40
758;DHT22;363;48.764;9.172;2023-03-14T17:10:28;10.50;84.00
758;DHT22;363;48.764;9.172;2023-03-14T17:12:54;10.40;81.80
758;DHT22;363;48.764;9.172;2023-03-14T17:15:19;10.40;82.40
758;DHT22;363;48.764;9.172;2023-03-14T17:17:45;10.40;82.30
758;DHT22;363;48.764;9.172;2023-03-14T17:20:11;10.50;82.70
758;DHT22;363;48.764;9.172;2023-03-14T17:22:36;10.30;83.10
758;DHT22;363;48.764;9.172;2023-03-14T17:25:02;10.30;83.50
758;DHT22;363;48.764;9.172;2023-03-14T17:27:28;10.50;83.10
758;DHT22;363;48.764;9.172;2023-03-14T17:29:54;10.40;83.40
758;DHT22;363;48.764;9.172;2023-03-14T17:32:20;10.50;84.70
758;DHT22;363;48.764;9.172;2023-03-14T17:34:45;10.60;87.20
758;DHT22;363;48.764;9.172;2023-03-14T17:37:11;10.30;91.60